Terminal Aerodrome Forecast
Issued by NWS Brownsville, TX

Home | Current Version | Previous Version | Text Only | Print | Product List | Glossary On
Versions: 1 2 3 4 5 6 7 8 9 10 11 12 13
000
FTUS44 KBRO 202300
TAFMFE
TAF
KMFE 202325Z 2100/2124 15020G30KT P6SM FEW040
     FM210100 14015G20KT P6SM SKC
     FM210300 14010KT P6SM FEW030
     FM211300 15015G20KT P6SM FEW030
     FM211500 15022G32KT P6SM SCT050=

USA.gov is the U.S. government's official web portal to all federal, state and local government web resources and services.